Overview Statistics Trail Chart Weather Telemetry Raw packets
 

This is the latest recevied weather packets stored in our database for station/object VK5GR-12. If no packets are shown the sender has not sent any weather packets the latest 10 day(s).

<< 2 3 4 5 6 7 8 >>
Time Temp. Humidity Pressure Rain* Wind** Luminosity Snow
1788578746 14.44° C 68% 1014.2 hPa 0 mm - 302 W/m² -
1788577842 13.89° C 71% 1014.2 hPa 0 mm - 355 W/m² -
1788576938 13.89° C 80% 1014.1 hPa 0 mm - 84 W/m² -
1788576037 12.78° C 89% 1014.1 hPa 0 mm - 702 W/m² -
1788575138 13.33° C 81% 1014.4 hPa 6.1 mm - 192 W/m² -
1788574233 14.44° C 68% 1013.7 hPa 0 mm - 195 W/m² -
1788573332 15.56° C 65% 1013.7 hPa 0 mm - 467 W/m² -
1788572456 15° C 68% 1014 hPa 0 mm - 660 W/m² -
1788571527 14.44° C 70% 1013.9 hPa 0 mm - 599 W/m² -
1788570635 13.89° C 71% 1013.4 hPa 0 mm - 228 W/m² -
1788569724 12.78° C 84% 1013.2 hPa 0 mm - 620 W/m² -
1788568853 12.22° C 90% 1013.1 hPa 0 mm - 255 W/m² -
1788567919 12.78° C 89% 1013 hPa 0 mm - 122 W/m² -
1788567014 12.78° C 91% 1012.6 hPa 1.27 mm - 130 W/m² -
1788566113 12.22° C 91% 1012.6 hPa 0 mm - 140 W/m² -
1788565208 12.78° C 90% 1012.5 hPa 0 mm - 93 W/m² -
1788564308 13.33° C 86% 1011.9 hPa 3.05 mm - 34 W/m² -
1788563406 13.89° C 80% 1011.5 hPa 0 mm - 53 W/m² -
1788562504 13.89° C 78% 1011.7 hPa 0 mm - 81 W/m² -
1788561599 13.89° C 78% 1011.7 hPa 0 mm - 62 W/m² -
1788560695 13.33° C 80% 1011.8 hPa 0 mm - 92 W/m² -
1788559792 13.33° C 81% 1011.6 hPa 0 mm - 43 W/m² -
1788558887 13.33° C 81% 1011.4 hPa 0 mm - 29 W/m² -
1788557985 13.33° C 82% 1011 hPa 0 mm - 23 W/m² -
1788557085 13.33° C 81% 1011 hPa 0 mm - 17 W/m² -

* Rain latest hour (hover to see other rain measurements)
** Current wind speed in m/s (hover to see current wind gust speed)